M/V Manukai — WRGD — position and weather

sailwx.info

Track history (hours):
 
Tides and Currents Weather Stations Pressure Air Temp Water Temp Dewpoint Dewpoint Depression Visibility Wind Speed Wind Dir Waves Ship Positions

M/V Manukai

Owner: Matson Navigation Company, Inc., Oakland, CA. More information available from US FCC via Universal Licensing System and Coast Guard Vessel Documentation Center.

Last reported at 2014-Oct-01 11:16 UTC. Time now 2014-Oct-01 12:29 UTC.
Position N 31°23' E 121°35'.

Type: Ship (hazmat cat A). MMSI: 369296000.

Date/timePositionNaut miles runAvg speedWind from/ knotsBaromVisibWave heightAir tempDewpointWater temp
2014-Oct-01 11:16N 31°23' E 121°35'0 0.0
2014-Oct-01 10:30N 31°23' E 121°35'0 0.0
2014-Oct-01 09:24N 31°23' E 121°35'0 0.0
2014-Oct-01 08:33N 31°23' E 121°35'0 0.0
2014-Oct-01 07:32N 31°23' E 121°35'0 0.0
2014-Oct-01 06:08N 31°23' E 121°35'0 0.0
2014-Oct-01 05:32N 31°23' E 121°35'0 0.0
2014-Oct-01 03:14N 31°23' E 121°35'0 0.0
2014-Oct-01 02:18N 31°23' E 121°35'0 0.0
2014-Oct-01 01:33N 31°23' E 121°35'5 4.9
2014-Oct-01 00:32N 31°21' E 121°40'3611.5
2014-Sep-30 21:23N 31°06' E 122°19'32 3.2
2014-Sep-30 11:33N 30°56' E 122°54'2019.9
2014-Sep-30 10:33N 30°37' E 122°59'4519.3
2014-Sep-30 08:12N 29°53' E 122°48'1320.5
2014-Sep-30 07:33N 29°43' E 122°37'1616.0
2014-Sep-30 06:33N 29°45' E 122°19'1312.8
2014-Sep-30 05:33N 29°55' E 122°09'1111.2
2014-Sep-30 04:33N 29°57' E 121°57'5 5.4
2014-Sep-30 03:33N 29°57' E 121°50'0 0.0
2014-Sep-30 02:33N 29°57' E 121°50'0 0.0
2014-Sep-30 01:28N 29°57' E 121°50'0 0.0
2014-Sep-30 00:16N 29°57' E 121°50'0 0.0
2014-Sep-29 23:28N 29°57' E 121°50'0 0.0
2014-Sep-29 22:28N 29°57' E 121°50'0 0.0
2014-Sep-29 21:28N 29°57' E 121°50'1 1.1
2014-Sep-29 20:33N 29°57' E 121°51'9 8.4
2014-Sep-29 19:32N 29°56' E 122°01'1211.7
2014-Sep-29 18:33N 29°50' E 122°13'1212.3
2014-Sep-29 17:33N 29°44' E 122°25'1414.1
2014-Sep-29 16:33N 29°40' E 122°40'34614.2
2014-Sep-28 16:07N 24°44' E 119°19'1322.6
2014-Sep-28 15:33N 24°37' E 119°07'2323.0
2014-Sep-28 14:33N 24°27' E 118°44'2322.3
2014-Sep-28 13:33N 24°19' E 118°21'1514.8
2014-Sep-28 12:33N 24°24' E 118°06'7 6.6
2014-Sep-28 11:33N 24°31' E 118°05'0 0.0
2014-Sep-28 10:33N 24°31' E 118°05'0 0.0
2014-Sep-28 09:33N 24°31' E 118°05'0 0.0
2014-Sep-28 08:32N 24°31' E 118°05'0 0.0
2014-Sep-28 07:29N 24°31' E 118°05'0 0.0
2014-Sep-28 06:32N 24°31' E 118°05'0 0.0
2014-Sep-28 05:29N 24°31' E 118°05'0 0.0
2014-Sep-28 04:29N 24°31' E 118°05'5 4.9
2014-Sep-28 03:33N 24°26' E 118°03'1312.2
2014-Sep-28 02:31N 24°20' E 118°15'0 0.3
2014-Sep-28 01:33N 24°19' E 118°15'3 3.4
2014-Sep-28 00:33N 24°17' E 118°18'1212.4
2014-Sep-27 23:33N 24°07' E 118°25'11318.8
2014-Sep-27 17:33N 22°42' E 119°47'2420.7
2014-Sep-27 16:23N 22°25' E 120°05'1720.2
2014-Sep-27 15:33N 22°11' E 120°16'33421.5
2014-Sep-27 00:00N 20°06' E 125°48'82522.9 020 / 81011.010.8 0.527.823.129.7
2014-Sep-25 12:00N 15°30' E 139°24'   270 / 81005.010.8 1.027.824.830.4
2014-Sep-22 12:00N 15°18' E 151°06'27823.2 040 / 111016.0 5.4 1.526.725.230.1
2014-Sep-22 00:00N 16°18' E 155°48'27723.0 100 / 221008.3 5.4 2.526.725.229.9
2014-Sep-21 12:00N 17°18' E 160°30'   100 / 171010.6 5.4 2.526.725.229.8
Track history (hours):
 
Tides and Currents Weather Stations Pressure Air Temp Water Temp Dewpoint Dewpoint Depression Visibility Wind Speed Wind Dir Waves Ship Positions

M/V Manukai

Owner: Matson Navigation Company, Inc., Oakland, CA. More information available from US FCC via Universal Licensing System and Coast Guard Vessel Documentation Center.

Last reported at 2014-Oct-01 11:16 UTC. Time now 2014-Oct-01 12:29 UTC.
Position N 31°23' E 121°35'.

Type: Ship (hazmat cat A). MMSI: 369296000.

Date/timePositionNaut miles runAvg speedWind from/ knotsBaromVisibWave heightAir tempDewpointWater temp
2014-Oct-01 11:16N 31°23' E 121°35'0 0.0
2014-Oct-01 10:30N 31°23' E 121°35'0 0.0
2014-Oct-01 09:24N 31°23' E 121°35'0 0.0
2014-Oct-01 08:33N 31°23' E 121°35'0 0.0
2014-Oct-01 07:32N 31°23' E 121°35'0 0.0
2014-Oct-01 06:08N 31°23' E 121°35'0 0.0
2014-Oct-01 05:32N 31°23' E 121°35'0 0.0
2014-Oct-01 03:14N 31°23' E 121°35'0 0.0
2014-Oct-01 02:18N 31°23' E 121°35'0 0.0
2014-Oct-01 01:33N 31°23' E 121°35'5 4.9
2014-Oct-01 00:32N 31°21' E 121°40'3611.5
2014-Sep-30 21:23N 31°06' E 122°19'32 3.2
2014-Sep-30 11:33N 30°56' E 122°54'2019.9
2014-Sep-30 10:33N 30°37' E 122°59'4519.3
2014-Sep-30 08:12N 29°53' E 122°48'1320.5
2014-Sep-30 07:33N 29°43' E 122°37'1616.0
2014-Sep-30 06:33N 29°45' E 122°19'1312.8
2014-Sep-30 05:33N 29°55' E 122°09'1111.2
2014-Sep-30 04:33N 29°57' E 121°57'5 5.4
2014-Sep-30 03:33N 29°57' E 121°50'0 0.0
2014-Sep-30 02:33N 29°57' E 121°50'0 0.0
2014-Sep-30 01:28N 29°57' E 121°50'0 0.0
2014-Sep-30 00:16N 29°57' E 121°50'0 0.0
2014-Sep-29 23:28N 29°57' E 121°50'0 0.0
2014-Sep-29 22:28N 29°57' E 121°50'0 0.0
2014-Sep-29 21:28N 29°57' E 121°50'1 1.1
2014-Sep-29 20:33N 29°57' E 121°51'9 8.4
2014-Sep-29 19:32N 29°56' E 122°01'1211.7
2014-Sep-29 18:33N 29°50' E 122°13'1212.3
2014-Sep-29 17:33N 29°44' E 122°25'1414.1
2014-Sep-29 16:33N 29°40' E 122°40'34614.2
2014-Sep-28 16:07N 24°44' E 119°19'1322.6
2014-Sep-28 15:33N 24°37' E 119°07'2323.0
2014-Sep-28 14:33N 24°27' E 118°44'2322.3
2014-Sep-28 13:33N 24°19' E 118°21'1514.8
2014-Sep-28 12:33N 24°24' E 118°06'7 6.6
2014-Sep-28 11:33N 24°31' E 118°05'0 0.0
2014-Sep-28 10:33N 24°31' E 118°05'0 0.0
2014-Sep-28 09:33N 24°31' E 118°05'0 0.0
2014-Sep-28 08:32N 24°31' E 118°05'0 0.0
2014-Sep-28 07:29N 24°31' E 118°05'0 0.0
2014-Sep-28 06:32N 24°31' E 118°05'0 0.0
2014-Sep-28 05:29N 24°31' E 118°05'0 0.0
2014-Sep-28 04:29N 24°31' E 118°05'5 4.9
2014-Sep-28 03:33N 24°26' E 118°03'1312.2
2014-Sep-28 02:31N 24°20' E 118°15'0 0.3
2014-Sep-28 01:33N 24°19' E 118°15'3 3.4
2014-Sep-28 00:33N 24°17' E 118°18'1212.4
2014-Sep-27 23:33N 24°07' E 118°25'11318.8
2014-Sep-27 17:33N 22°42' E 119°47'2420.7
2014-Sep-27 16:23N 22°25' E 120°05'1720.2
2014-Sep-27 15:33N 22°11' E 120°16'33421.5
2014-Sep-27 00:00N 20°06' E 125°48'82522.9 020 / 81011.010.8 0.527.823.129.7
2014-Sep-25 12:00N 15°30' E 139°24'   270 / 81005.010.8 1.027.824.830.4
2014-Sep-22 12:00N 15°18' E 151°06'27823.2 040 / 111016.0 5.4 1.526.725.230.1
2014-Sep-22 00:00N 16°18' E 155°48'27723.0 100 / 221008.3 5.4 2.526.725.229.9
2014-Sep-21 12:00N 17°18' E 160°30'   100 / 171010.6 5.4 2.526.725.229.8

Dump ship's entire track history